Time;durP1;ratioP1;P1;durP2;ratioP2;P2;SDS_P1;SDS_P2;PMS_P1;PMS_P2;Temp;Humidity;BMP_temperature;BMP_pressure;BME280_temperature;BME280_humidity;BME280_pressure;Samples;Min_cycle;Max_cycle;Signal;HPM_P1;HPM_P2
2023/08/01 00:00:38;;;;;;;96.15;9.75;;;;;;;;;;5004505;28;20665;-53
2023/08/01 00:03:03;;;;;;;98.60;9.47;;;;;;;;;;5006754;28;20211;-53
2023/08/01 00:05:28;;;;;;;136.23;11.93;;;;;;;;;;5000818;28;21156;-52
2023/08/01 00:07:53;;;;;;;76.90;8.43;;;;;;;;;;5006039;28;20164;-52
2023/08/01 00:10:19;;;;;;;110.83;10.70;;;;;;;;;;5003132;28;20260;-52
2023/08/01 00:12:44;;;;;;;95.03;9.90;;;;;;;;;;5006342;28;20318;-52
2023/08/01 00:15:09;;;;;;;101.93;14.97;;;;;;;;;;5003694;28;20277;-51
2023/08/01 00:17:35;;;;;;;88.47;9.45;;;;;;;;;;5003438;28;20268;-51
2023/08/01 00:20:00;;;;;;;77.23;8.73;;;;;;;;;;5006213;28;20457;-52
2023/08/01 00:22:26;;;;;;;115.57;10.23;;;;;;;;;;5003208;28;20463;-50
2023/08/01 00:24:51;;;;;;;76.90;8.07;;;;;;;;;;5006251;28;20361;-52
2023/08/01 00:27:16;;;;;;;80.10;8.93;;;;;;;;;;5005063;28;20296;-52
2023/08/01 00:29:42;;;;;;;79.70;8.77;;;;;;;;;;5004979;28;20264;-50
2023/08/01 00:32:07;;;;;;;80.53;8.35;;;;;;;;;;5002897;28;20280;-50
2023/08/01 00:34:32;;;;;;;113.07;10.82;;;;;;;;;;5002625;28;20041;-51
2023/08/01 00:36:58;;;;;;;85.40;9.50;;;;;;;;;;5004773;28;20128;-52
2023/08/01 00:39:23;;;;;;;133.50;11.75;;;;;;;;;;5004654;28;20049;-50
2023/08/01 00:41:48;;;;;;;80.38;8.98;;;;;;;;;;5002724;28;20396;-51
2023/08/01 00:44:13;;;;;;;80.80;8.75;;;;;;;;;;5004346;28;20022;-49
2023/08/01 00:46:39;;;;;;;86.67;9.07;;;;;;;;;;5003117;28;20470;-50
2023/08/01 00:49:04;;;;;;;79.72;8.65;;;;;;;;;;5003465;28;20472;-51
2023/08/01 00:51:31;;;;;;;132.15;12.15;;;;;;;;;;5003414;28;20033;-51
2023/08/01 00:53:56;;;;;;;78.20;9.18;;;;;;;;;;5003645;28;20029;-50
2023/08/01 00:56:21;;;;;;;115.53;10.45;;;;;;;;;;5000376;28;20851;-52
2023/08/01 00:58:47;;;;;;;96.87;9.10;;;;;;;;;;5004589;28;20071;-52
2023/08/01 01:01:12;;;;;;;77.43;8.37;;;;;;;;;;5004512;28;20372;-51
2023/08/01 01:03:37;;;;;;;157.47;12.53;;;;;;;;;;5002777;28;20293;-53
2023/08/01 01:06:08;;;;;;;76.32;8.40;;;;;;;;;;5004103;28;20786;-51
2023/08/01 01:08:33;;;;;;;141.75;12.25;;;;;;;;;;5002962;28;20041;-51
2023/08/01 01:10:59;;;;;;;93.97;8.67;;;;;;;;;;5001923;28;20033;-51
2023/08/01 01:13:24;;;;;;;120.90;11.33;;;;;;;;;;5003116;28;20268;-50
2023/08/01 01:15:49;;;;;;;78.83;8.13;;;;;;;;;;5003777;28;20707;-51
2023/08/01 01:18:14;;;;;;;103.43;9.57;;;;;;;;;;5004197;28;20089;-51
2023/08/01 01:20:39;;;;;;;80.77;8.03;;;;;;;;;;5003242;28;20352;-53
2023/08/01 01:23:06;;;;;;;84.93;8.13;;;;;;;;;;5004122;28;20284;-50
2023/08/01 01:25:32;;;;;;;157.63;12.90;;;;;;;;;;5001791;28;20435;-51
2023/08/01 01:27:58;;;;;;;77.78;8.00;;;;;;;;;;5004201;28;20037;-50
2023/08/01 01:30:24;;;;;;;90.25;8.93;;;;;;;;;;5002933;28;23765;-50
2023/08/01 01:32:49;;;;;;;86.80;8.15;;;;;;;;;;5002785;28;20039;-51
2023/08/01 01:35:14;;;;;;;89.07;8.30;;;;;;;;;;5004397;28;20018;-50
2023/08/01 01:37:40;;;;;;;72.00;7.20;;;;;;;;;;5003799;28;20186;-50
2023/08/01 01:40:05;;;;;;;84.93;8.23;;;;;;;;;;5002649;28;20712;-52
2023/08/01 01:42:31;;;;;;;135.02;23.25;;;;;;;;;;5002594;28;20264;-52
2023/08/01 01:44:56;;;;;;;79.17;9.13;;;;;;;;;;5001579;28;20022;-53
2023/08/01 01:47:21;;;;;;;83.17;7.67;;;;;;;;;;5003189;28;20304;-50
2023/08/01 01:49:46;;;;;;;87.40;7.93;;;;;;;;;;5002930;28;20273;-51
2023/08/01 01:52:11;;;;;;;63.53;6.53;;;;;;;;;;5003547;28;20352;-50
2023/08/01 01:54:37;;;;;;;151.20;12.00;;;;;;;;;;5000770;28;20021;-51
2023/08/01 01:57:02;;;;;;;73.43;7.17;;;;;;;;;;5003397;28;20298;-51
2023/08/01 01:59:27;;;;;;;91.90;6.90;;;;;;;;;;5002360;28;20260;-52
2023/08/01 02:01:52;;;;;;;106.68;8.48;;;;;;;;;;5003518;28;20037;-50
2023/08/01 02:04:18;;;;;;;85.50;7.20;;;;;;;;;;5001876;28;20052;-50
2023/08/01 02:06:43;;;;;;;75.63;7.80;;;;;;;;;;5002576;28;20091;-51
2023/08/01 02:09:08;;;;;;;92.37;8.47;;;;;;;;;;5001399;28;20337;-50
2023/08/01 02:11:33;;;;;;;124.27;9.97;;;;;;;;;;5002576;28;20333;-50
2023/08/01 02:13:59;;;;;;;77.13;7.97;;;;;;;;;;5002903;28;20269;-51
2023/08/01 02:16:24;;;;;;;87.60;7.73;;;;;;;;;;5002234;28;20288;-50
2023/08/01 02:18:49;;;;;;;77.23;7.20;;;;;;;;;;5001384;28;20053;-50
2023/08/01 02:21:14;;;;;;;75.47;7.50;;;;;;;;;;5004062;28;20419;-52
2023/08/01 02:23:40;;;;;;;129.33;10.50;;;;;;;;;;5001857;28;20268;-51
2023/08/01 02:26:07;;;;;;;76.75;7.95;;;;;;;;;;5002183;28;20663;-50
2023/08/01 02:28:32;;;;;;;134.90;11.15;;;;;;;;;;5001792;28;20018;-50
2023/08/01 02:30:57;;;;;;;80.72;7.50;;;;;;;;;;5001939;28;20038;-50
2023/08/01 02:33:23;;;;;;;84.97;7.67;;;;;;;;;;5003387;28;20056;-50
2023/08/01 02:35:48;;;;;;;125.07;33.78;;;;;;;;;;4999121;28;20689;-51
2023/08/01 02:38:13;;;;;;;300.38;103.90;;;;;;;;;;5003481;28;20574;-50
2023/08/01 02:40:39;;;;;;;117.17;9.80;;;;;;;;;;4999806;28;20044;-50
2023/08/01 02:43:04;;;;;;;105.65;10.88;;;;;;;;;;5002612;28;20368;-50
2023/08/01 02:45:29;;;;;;;132.33;11.23;;;;;;;;;;4999178;28;20072;-51
2023/08/01 02:47:54;;;;;;;76.17;7.47;;;;;;;;;;5003419;28;20277;-51
2023/08/01 02:50:20;;;;;;;71.90;7.35;;;;;;;;;;5003332;28;20286;-52
2023/08/01 02:52:45;;;;;;;102.80;8.65;;;;;;;;;;5002065;28;20033;-50
2023/08/01 02:55:10;;;;;;;96.22;8.20;;;;;;;;;;5004228;28;20558;-52
2023/08/01 02:57:36;;;;;;;123.00;10.67;;;;;;;;;;5005512;28;20022;-51
2023/08/01 03:00:04;;;;;;;82.57;7.53;;;;;;;;;;5006354;28;20276;-52
2023/08/01 03:02:30;;;;;;;107.72;9.65;;;;;;;;;;5005018;28;20041;-52
2023/08/01 03:04:55;;;;;;;86.32;8.20;;;;;;;;;;5005300;28;20032;-51
2023/08/01 03:07:20;;;;;;;76.18;7.25;;;;;;;;;;5005459;28;20614;-53
2023/08/01 03:09:45;;;;;;;78.03;7.57;;;;;;;;;;5005893;28;20017;-51
2023/08/01 03:12:11;;;;;;;71.82;7.10;;;;;;;;;;5005394;28;20283;-51
2023/08/01 03:14:36;;;;;;;133.60;11.67;;;;;;;;;;5004581;28;20571;-51
2023/08/01 03:17:01;;;;;;;72.20;7.53;;;;;;;;;;5005549;28;20398;-52
2023/08/01 03:19:26;;;;;;;83.78;8.20;;;;;;;;;;5006406;28;20033;-52
2023/08/01 03:21:52;;;;;;;74.43;7.23;;;;;;;;;;5005089;28;20719;-53
2023/08/01 03:24:17;;;;;;;81.55;7.93;;;;;;;;;;5006128;28;20762;-52
2023/08/01 03:26:42;;;;;;;131.32;11.02;;;;;;;;;;5004713;28;20064;-51
2023/08/01 03:29:07;;;;;;;81.37;7.83;;;;;;;;;;5005113;28;20671;-52
2023/08/01 03:31:33;;;;;;;126.40;11.07;;;;;;;;;;5005017;28;20627;-52
2023/08/01 03:34:00;;;;;;;74.97;7.75;;;;;;;;;;5003273;28;20285;-51
2023/08/01 03:36:26;;;;;;;79.32;7.55;;;;;;;;;;5004479;28;20041;-52
2023/08/01 03:38:51;;;;;;;80.37;7.60;;;;;;;;;;5005330;28;20368;-52
2023/08/01 03:41:16;;;;;;;79.85;7.82;;;;;;;;;;5005076;28;20516;-53
2023/08/01 03:43:42;;;;;;;111.90;9.27;;;;;;;;;;5004884;28;20648;-52
2023/08/01 03:46:07;;;;;;;63.77;6.97;;;;;;;;;;5004370;28;20323;-52
2023/08/01 03:48:32;;;;;;;121.07;10.18;;;;;;;;;;5003346;28;20265;-53
2023/08/01 03:50:57;;;;;;;81.23;8.10;;;;;;;;;;5005131;28;20419;-55
2023/08/01 03:53:23;;;;;;;79.80;7.73;;;;;;;;;;5005577;28;20275;-52
2023/08/01 03:55:49;;;;;;;71.50;6.82;;;;;;;;;;5002502;28;20827;-52
2023/08/01 03:58:14;;;;;;;101.97;16.77;;;;;;;;;;5006751;28;20184;-50
2023/08/01 04:00:40;;;;;;;125.15;10.82;;;;;;;;;;5004757;28;20272;-51
2023/08/01 04:03:05;;;;;;;107.97;8.63;;;;;;;;;;5005753;28;20502;-52
2023/08/01 04:05:30;;;;;;;71.50;7.22;;;;;;;;;;5003230;28;20042;-51
2023/08/01 04:07:56;;;;;;;81.07;8.03;;;;;;;;;;5005953;28;20090;-54
2023/08/01 04:10:21;;;;;;;87.28;7.90;;;;;;;;;;5004653;28;20736;-54
2023/08/01 04:12:47;;;;;;;137.90;12.35;;;;;;;;;;5005858;28;20021;-54
2023/08/01 04:15:12;;;;;;;65.93;7.17;;;;;;;;;;5007714;28;20126;-53
2023/08/01 04:17:37;;;;;;;137.67;11.10;;;;;;;;;;5004151;28;20340;-52
2023/08/01 04:20:03;;;;;;;83.75;7.88;;;;;;;;;;5006219;28;20275;-53
2023/08/01 04:22:28;;;;;;;65.80;6.93;;;;;;;;;;5005698;28;20356;-53
2023/08/01 04:24:53;;;;;;;93.60;8.43;;;;;;;;;;5003050;28;20527;-52
2023/08/01 04:27:18;;;;;;;82.47;10.48;;;;;;;;;;5006607;28;20751;-52
2023/08/01 04:29:44;;;;;;;130.23;10.40;;;;;;;;;;5002469;28;20033;-54
2023/08/01 04:32:12;;;;;;;99.18;8.63;;;;;;;;;;5005464;28;20083;-54
2023/08/01 04:34:37;;;;;;;99.80;7.53;;;;;;;;;;5003440;28;20184;-52
2023/08/01 04:37:03;;;;;;;81.33;7.63;;;;;;;;;;5004505;28;20112;-50
2023/08/01 04:39:28;;;;;;;119.82;15.02;;;;;;;;;;5005010;28;20330;-51
2023/08/01 04:41:53;;;;;;;77.75;7.35;;;;;;;;;;5003488;28;20026;-53
2023/08/01 04:44:19;;;;;;;66.77;6.53;;;;;;;;;;5004633;28;20026;-52
2023/08/01 04:46:44;;;;;;;168.47;12.90;;;;;;;;;;5003168;28;20650;-52
2023/08/01 04:49:09;;;;;;;79.87;7.90;;;;;;;;;;5003762;28;20307;-53
2023/08/01 04:51:34;;;;;;;73.77;10.30;;;;;;;;;;5003499;28;20313;-52
2023/08/01 04:53:59;;;;;;;85.40;8.10;;;;;;;;;;5002846;28;20666;-53
2023/08/01 04:56:25;;;;;;;59.87;6.20;;;;;;;;;;5003709;28;20874;-52
2023/08/01 04:58:50;;;;;;;142.53;11.47;;;;;;;;;;5003192;28;20268;-53
2023/08/01 05:01:15;;;;;;;92.22;8.25;;;;;;;;;;5003724;28;20327;-52
2023/08/01 05:03:40;;;;;;;121.00;9.43;;;;;;;;;;5003168;28;20026;-52
2023/08/01 05:06:06;;;;;;;81.07;7.93;;;;;;;;;;5004198;28;20701;-53
2023/08/01 05:08:31;;;;;;;76.57;7.60;;;;;;;;;;5002753;28;20301;-54
2023/08/01 05:10:56;;;;;;;78.00;7.93;;;;;;;;;;5001314;28;20304;-52
2023/08/01 05:13:21;;;;;;;88.35;8.40;;;;;;;;;;5004908;28;20303;-53
2023/08/01 05:15:47;;;;;;;152.43;12.40;;;;;;;;;;5001376;28;20071;-53
2023/08/01 05:18:13;;;;;;;98.00;9.43;;;;;;;;;;5003722;28;20312;-52
2023/08/01 05:20:38;;;;;;;109.07;10.05;;;;;;;;;;5001630;28;20048;-52
2023/08/01 05:23:03;;;;;;;108.87;9.40;;;;;;;;;;5003412;28;20022;-52
2023/08/01 05:25:29;;;;;;;67.68;6.82;;;;;;;;;;5005424;28;20284;-51
2023/08/01 05:27:54;;;;;;;89.63;8.40;;;;;;;;;;5000409;28;21398;-52
2023/08/01 05:30:19;;;;;;;79.73;8.27;;;;;;;;;;5004578;28;20064;-52
2023/08/01 05:32:45;;;;;;;146.50;11.83;;;;;;;;;;5001728;28;20755;-51
2023/08/01 05:35:11;;;;;;;80.15;7.47;;;;;;;;;;5002477;28;20275;-52
2023/08/01 05:37:36;;;;;;;103.53;8.70;;;;;;;;;;5001508;28;20025;-53
2023/08/01 05:40:02;;;;;;;61.27;7.10;;;;;;;;;;5004304;28;20069;-52
2023/08/01 05:42:28;;;;;;;84.68;7.95;;;;;;;;;;5002707;28;20303;-52
2023/08/01 05:44:53;;;;;;;149.03;12.43;;;;;;;;;;5001250;28;20395;-52
2023/08/01 05:47:18;;;;;;;87.27;8.00;;;;;;;;;;5004872;28;20295;-53
2023/08/01 05:49:43;;;;;;;117.13;10.20;;;;;;;;;;5002268;28;20256;-53
2023/08/01 05:52:09;;;;;;;103.18;8.73;;;;;;;;;;5002396;28;20038;-52
2023/08/01 05:54:34;;;;;;;82.73;9.13;;;;;;;;;;5003848;28;20026;-54
2023/08/01 05:56:59;;;;;;;85.53;8.63;;;;;;;;;;5001185;28;20280;-52
2023/08/01 05:59:24;;;;;;;101.50;9.53;;;;;;;;;;5003676;28;20268;-53
2023/08/01 06:01:50;;;;;;;145.57;12.83;;;;;;;;;;5001447;28;20710;-52
2023/08/01 06:04:15;;;;;;;134.45;21.67;;;;;;;;;;5001135;28;20383;-53
2023/08/01 06:06:40;;;;;;;133.80;11.02;;;;;;;;;;4999660;28;20037;-52
2023/08/01 06:09:05;;;;;;;89.60;9.05;;;;;;;;;;5002088;28;20018;-53
2023/08/01 06:11:33;;;;;;;69.77;7.47;;;;;;;;;;5000650;28;20113;-53
2023/08/01 06:13:58;;;;;;;93.97;8.55;;;;;;;;;;4997252;28;20591;-53
2023/08/01 06:16:23;;;;;;;71.10;7.70;;;;;;;;;;5003049;28;20092;-53
2023/08/01 06:18:48;;;;;;;129.25;11.75;;;;;;;;;;4999573;28;20269;-54
2023/08/01 06:21:14;;;;;;;78.53;8.38;;;;;;;;;;5001341;28;20461;-52
2023/08/01 06:23:39;;;;;;;90.33;8.93;;;;;;;;;;5002029;28;20022;-51
2023/08/01 06:26:04;;;;;;;88.18;8.45;;;;;;;;;;5003484;28;20296;-52
2023/08/01 06:28:30;;;;;;;87.60;8.90;;;;;;;;;;5002781;28;20109;-52
2023/08/01 06:30:56;;;;;;;114.93;9.80;;;;;;;;;;5003502;28;20803;-54
2023/08/01 06:33:21;;;;;;;104.95;9.13;;;;;;;;;;5012402;28;20029;-52
2023/08/01 06:35:47;;;;;;;144.23;12.27;;;;;;;;;;5003965;28;20564;-52
2023/08/01 06:38:12;;;;;;;77.57;8.57;;;;;;;;;;5007420;28;20265;-52
2023/08/01 06:40:37;;;;;;;100.00;9.67;;;;;;;;;;5006063;28;20156;-53
2023/08/01 06:43:02;;;;;;;104.45;9.98;;;;;;;;;;5004781;28;20841;-53
2023/08/01 06:45:28;;;;;;;83.63;13.50;;;;;;;;;;5004625;28;20033;-56
2023/08/01 06:47:53;;;;;;;130.75;12.57;;;;;;;;;;5005073;28;20076;-52
2023/08/01 06:50:18;;;;;;;77.72;9.23;;;;;;;;;;5006676;28;20029;-54
2023/08/01 06:52:43;;;;;;;127.22;12.20;;;;;;;;;;5003878;28;20033;-53
2023/08/01 06:55:09;;;;;;;87.73;9.93;;;;;;;;;;5006277;28;20006;-53
2023/08/01 06:57:34;;;;;;;76.47;9.00;;;;;;;;;;5005342;28;20252;-54
2023/08/01 06:59:59;;;;;;;77.60;8.93;;;;;;;;;;5003989;28;20021;-53
2023/08/01 07:02:25;;;;;;;77.72;9.55;;;;;;;;;;5005618;28;20029;-53
2023/08/01 07:04:50;;;;;;;121.40;41.20;;;;;;;;;;5007622;28;20531;-53
2023/08/01 07:07:15;;;;;;;68.97;8.27;;;;;;;;;;5006774;28;20041;-52
2023/08/01 07:09:41;;;;;;;78.43;8.95;;;;;;;;;;5008022;28;20253;-53
2023/08/01 07:12:06;;;;;;;68.03;8.40;;;;;;;;;;5008394;28;20021;-52
2023/08/01 07:14:31;;;;;;;63.80;7.65;;;;;;;;;;5009935;28;20295;-53
2023/08/01 07:16:57;;;;;;;114.95;10.73;;;;;;;;;;5007783;28;20454;-53
2023/08/01 07:19:22;;;;;;;57.17;7.70;;;;;;;;;;5009183;28;20035;-53
2023/08/01 07:21:48;;;;;;;78.88;8.15;;;;;;;;;;5007318;28;20304;-53
2023/08/01 07:24:14;;;;;;;92.22;8.68;;;;;;;;;;5008873;28;20027;-53
2023/08/01 07:26:40;;;;;;;59.72;7.43;;;;;;;;;;5008847;28;20046;-53
2023/08/01 07:29:05;;;;;;;58.83;6.55;;;;;;;;;;5009776;28;20017;-53
2023/08/01 07:31:30;;;;;;;93.70;18.80;;;;;;;;;;5008148;28;20503;-53
2023/08/01 07:33:55;;;;;;;108.68;10.68;;;;;;;;;;5007845;28;20132;-53
2023/08/01 07:36:21;;;;;;;68.00;19.13;;;;;;;;;;5010313;28;20493;-54
2023/08/01 07:38:46;;;;;;;96.82;9.13;;;;;;;;;;5006484;28;20475;-54
2023/08/01 07:41:12;;;;;;;61.45;7.25;;;;;;;;;;5007047;28;20734;-54
2023/08/01 07:43:37;;;;;;;71.30;7.68;;;;;;;;;;5009846;28;20476;-52
2023/08/01 07:46:02;;;;;;;76.10;7.78;;;;;;;;;;5007040;28;21921;-52
2023/08/01 07:48:28;;;;;;;61.65;6.65;;;;;;;;;;5011521;28;20502;-53
2023/08/01 07:50:53;;;;;;;120.57;11.43;;;;;;;;;;5008474;28;20033;-53
2023/08/01 07:53:19;;;;;;;76.60;7.68;;;;;;;;;;5009682;28;20068;-51
2023/08/01 07:55:44;;;;;;;62.92;7.03;;;;;;;;;;5007854;28;20459;-52
2023/08/01 07:58:09;;;;;;;69.80;7.23;;;;;;;;;;5008863;28;20072;-52
2023/08/01 08:00:35;;;;;;;61.67;7.23;;;;;;;;;;5007474;28;20460;-52
2023/08/01 08:03:00;;;;;;;128.35;11.35;;;;;;;;;;5005470;28;20029;-52
2023/08/01 08:05:25;;;;;;;64.55;7.10;;;;;;;;;;5006853;28;20053;-52
2023/08/01 08:07:50;;;;;;;136.33;11.83;;;;;;;;;;5006525;28;20020;-52
2023/08/01 08:10:16;;;;;;;308.30;232.53;;;;;;;;;;5008019;28;20736;-52
2023/08/01 08:12:41;;;;;;;91.20;8.80;;;;;;;;;;5007944;28;20265;-52
2023/08/01 08:15:06;;;;;;;64.38;7.07;;;;;;;;;;5007178;28;20022;-52
2023/08/01 08:17:32;;;;;;;59.10;6.85;;;;;;;;;;5007922;28;20046;-52
2023/08/01 08:19:57;;;;;;;193.73;36.38;;;;;;;;;;5005641;28;20034;-51
2023/08/01 08:22:22;;;;;;;338.85;165.73;;;;;;;;;;5006173;28;20037;-52
2023/08/01 08:24:48;;;;;;;50.77;6.07;;;;;;;;;;5006314;28;20044;-52
2023/08/01 08:27:13;;;;;;;80.45;7.00;;;;;;;;;;5006584;28;20548;-53
2023/08/01 08:29:38;;;;;;;95.77;16.30;;;;;;;;;;5007644;28;20061;-53
2023/08/01 08:32:04;;;;;;;114.47;10.10;;;;;;;;;;5006838;28;20617;-53
2023/08/01 08:34:29;;;;;;;70.05;6.78;;;;;;;;;;5007792;28;20113;-53
2023/08/01 08:36:54;;;;;;;255.77;50.50;;;;;;;;;;5005916;28;20036;-54
2023/08/01 08:39:19;;;;;;;138.93;47.13;;;;;;;;;;5009783;28;20276;-54
2023/08/01 08:41:47;;;;;;;69.67;6.80;;;;;;;;;;5006497;28;20767;-51
2023/08/01 08:44:14;;;;;;;161.27;31.63;;;;;;;;;;5006652;28;20304;-51
2023/08/01 08:46:43;;;;;;;237.38;84.47;;;;;;;;;;5005430;28;20183;-54
2023/08/01 08:49:08;;;;;;;80.00;14.13;;;;;;;;;;5005173;28;20097;-52
2023/08/01 08:51:35;;;;;;;40.28;5.20;;;;;;;;;;5006323;28;20099;-51
2023/08/01 08:54:01;;;;;;;101.82;8.85;;;;;;;;;;5006535;28;20045;-51
2023/08/01 08:56:26;;;;;;;67.13;7.55;;;;;;;;;;5006745;28;20037;-51
2023/08/01 08:58:52;;;;;;;86.80;7.78;;;;;;;;;;5004110;28;20637;-51
2023/08/01 09:01:17;;;;;;;159.32;27.55;;;;;;;;;;5006785;28;20164;-50
2023/08/01 09:03:44;;;;;;;77.40;7.07;;;;;;;;;;5007055;28;20013;-51
2023/08/01 09:06:11;;;;;;;229.57;101.13;;;;;;;;;;5004777;28;20053;-52
2023/08/01 09:08:39;;;;;;;76.13;11.02;;;;;;;;;;5007536;28;20022;-53
2023/08/01 09:11:04;;;;;;;133.98;13.63;;;;;;;;;;5004492;28;20034;-51
2023/08/01 09:13:29;;;;;;;58.15;5.88;;;;;;;;;;5008257;28;20032;-52
2023/08/01 09:15:56;;;;;;;101.97;8.02;;;;;;;;;;5006245;28;20045;-51
2023/08/01 09:18:21;;;;;;;61.55;5.55;;;;;;;;;;5007660;28;20108;-52
2023/08/01 09:20:47;;;;;;;66.57;7.85;;;;;;;;;;5007330;28;20069;-51
2023/08/01 09:23:13;;;;;;;92.45;8.05;;;;;;;;;;5004145;28;20038;-51
2023/08/01 09:25:39;;;;;;;57.90;5.30;;;;;;;;;;5006022;28;20029;-52
2023/08/01 09:28:21;;;;;;;111.55;9.48;;;;;;;;;;5006403;28;20116;-54
2023/08/01 09:30:50;;;;;;;60.92;5.95;;;;;;;;;;5005788;28;20510;-53
2023/08/01 09:33:16;;;;;;;73.65;9.60;;;;;;;;;;5007072;28;20241;-53
2023/08/01 09:35:42;;;;;;;82.53;7.40;;;;;;;;;;5006015;28;20021;-54
2023/08/01 09:38:08;;;;;;;160.07;32.35;;;;;;;;;;5007258;28;20014;-55
2023/08/01 09:40:39;;;;;;;54.88;5.65;;;;;;;;;;5007143;28;20038;-53
2023/08/01 09:43:05;;;;;;;137.93;11.15;;;;;;;;;;5004335;28;20586;-53
2023/08/01 09:45:30;;;;;;;59.17;9.35;;;;;;;;;;5005880;28;20372;-53
2023/08/01 09:47:55;;;;;;;148.90;19.92;;;;;;;;;;5005480;28;20152;-53
2023/08/01 09:50:22;;;;;;;62.27;7.83;;;;;;;;;;5004656;28;20026;-54
2023/08/01 09:52:52;;;;;;;52.00;6.28;;;;;;;;;;5005879;28;20069;-53
2023/08/01 09:55:18;;;;;;;72.68;7.22;;;;;;;;;;5005049;28;20057;-53
2023/08/01 09:57:45;;;;;;;61.60;7.30;;;;;;;;;;5006147;28;20025;-54
2023/08/01 10:00:10;;;;;;;104.90;9.70;;;;;;;;;;5004286;28;20083;-55
2023/08/01 10:02:36;;;;;;;92.43;18.58;;;;;;;;;;5004689;28;20029;-54
2023/08/01 10:05:02;;;;;;;106.75;8.68;;;;;;;;;;5002367;28;20024;-55
2023/08/01 10:07:29;;;;;;;77.32;18.30;;;;;;;;;;5004084;28;20061;-53
2023/08/01 10:09:54;;;;;;;124.30;19.52;;;;;;;;;;5002966;28;20025;-55
2023/08/01 10:12:22;;;;;;;96.85;44.88;;;;;;;;;;5004587;28;20040;-53
2023/08/01 10:14:47;;;;;;;68.90;22.33;;;;;;;;;;5005754;28;20033;-54
2023/08/01 10:17:14;;;;;;;264.55;170.73;;;;;;;;;;5001909;28;20088;-53
2023/08/01 10:19:40;;;;;;;57.97;10.13;;;;;;;;;;5005324;28;20029;-52
2023/08/01 10:22:06;;;;;;;140.00;46.72;;;;;;;;;;5003444;28;20408;-52
2023/08/01 10:24:32;;;;;;;84.95;13.20;;;;;;;;;;5004443;28;20468;-53
2023/08/01 10:26:57;;;;;;;193.57;104.55;;;;;;;;;;5003251;28;20733;-53
2023/08/01 10:29:34;;;;;;;140.65;49.30;;;;;;;;;;5004708;28;20026;-53
2023/08/01 10:31:59;;;;;;;110.55;12.90;;;;;;;;;;5002412;28;20100;-53
2023/08/01 10:34:25;;;;;;;76.90;26.02;;;;;;;;;;5006783;28;20018;-53
2023/08/01 10:36:54;;;;;;;123.30;34.03;;;;;;;;;;5004965;28;20045;-54
2023/08/01 10:39:23;;;;;;;154.55;109.95;;;;;;;;;;5005311;28;20025;-54
2023/08/01 10:41:56;;;;;;;287.70;136.02;;;;;;;;;;5003604;28;20048;-52
2023/08/01 10:44:21;;;;;;;156.52;93.82;;;;;;;;;;5006113;28;20029;-53
2023/08/01 10:46:57;;;;;;;217.73;187.73;;;;;;;;;;5003646;28;20395;-54
2023/08/01 10:49:34;;;;;;;80.72;25.77;;;;;;;;;;5005054;28;20045;-53
2023/08/01 10:52:00;;;;;;;171.95;67.43;;;;;;;;;;5003273;28;20092;-53
2023/08/01 10:54:25;;;;;;;192.93;119.72;;;;;;;;;;5013030;28;20029;-54
2023/08/01 10:56:55;;;;;;;274.27;53.30;;;;;;;;;;5006254;28;20125;-54
2023/08/01 10:59:21;;;;;;;188.70;142.57;;;;;;;;;;5005516;28;20018;-53
2023/08/01 11:01:50;;;;;;;102.55;51.22;;;;;;;;;;5004827;28;20037;-54
2023/08/01 11:04:15;;;;;;;145.25;125.03;;;;;;;;;;5004726;28;20076;-54
2023/08/01 11:06:59;;;;;;;93.77;15.97;;;;;;;;;;5005687;28;20128;-54
2023/08/01 11:09:25;;;;;;;199.75;137.70;;;;;;;;;;5005835;28;20314;-55
2023/08/01 11:11:58;;;;;;;166.77;109.07;;;;;;;;;;5006279;28;20034;-56
2023/08/01 11:14:25;;;;;;;92.25;50.67;;;;;;;;;;5005793;28;20025;-54
2023/08/01 11:16:50;;;;;;;211.23;174.07;;;;;;;;;;5008170;28;20038;-55
2023/08/01 11:19:19;;;;;;;231.18;191.93;;;;;;;;;;5008221;28;21392;-55
2023/08/01 11:21:45;;;;;;;179.00;137.27;;;;;;;;;;5010812;28;20129;-55
2023/08/01 11:24:10;;;;;;;147.57;20.13;;;;;;;;;;5008304;28;20117;-53
2023/08/01 11:26:36;;;;;;;103.53;32.92;;;;;;;;;;5008811;28;20046;-53
2023/08/01 11:29:02;;;;;;;151.02;71.30;;;;;;;;;;5007468;28;20095;-52
2023/08/01 11:31:28;;;;;;;85.55;38.53;;;;;;;;;;5010646;28;20034;-52
2023/08/01 11:33:57;;;;;;;78.47;20.00;;;;;;;;;;5009527;28;20310;-54
2023/08/01 11:36:23;;;;;;;192.80;173.57;;;;;;;;;;5006951;28;20041;-53
2023/08/01 11:38:49;;;;;;;156.70;103.95;;;;;;;;;;5007437;28;20458;-53
2023/08/01 11:41:14;;;;;;;173.93;53.60;;;;;;;;;;5007239;28;20500;-54
2023/08/01 11:43:43;;;;;;;140.95;26.23;;;;;;;;;;5007559;28;20456;-53
2023/08/01 11:46:09;;;;;;;207.45;38.17;;;;;;;;;;5007186;28;20030;-56
2023/08/01 11:48:34;;;;;;;47.55;4.35;;;;;;;;;;5008272;28;20446;-53
2023/08/01 11:51:00;;;;;;;187.25;155.55;;;;;;;;;;5007505;28;20033;-53
2023/08/01 11:53:26;;;;;;;198.38;110.13;;;;;;;;;;5008990;28;20411;-54
2023/08/01 11:55:52;;;;;;;194.75;160.48;;;;;;;;;;5008245;28;20046;-53
2023/08/01 11:58:37;;;;;;;278.52;177.55;;;;;;;;;;5007093;28;20041;-53
2023/08/01 12:01:03;;;;;;;151.27;89.57;;;;;;;;;;5006930;28;20454;-53
2023/08/01 12:03:29;;;;;;;200.35;98.20;;;;;;;;;;5008800;28;20555;-56
2023/08/01 12:06:04;;;;;;;265.40;136.43;;;;;;;;;;5007333;28;20057;-56
2023/08/01 12:08:32;;;;;;;73.95;24.10;;;;;;;;;;5009093;28;20018;-53
2023/08/01 12:10:57;;;;;;;317.58;201.73;;;;;;;;;;5006258;28;20022;-55
2023/08/01 12:13:23;;;;;;;166.33;147.33;;;;;;;;;;5006599;28;20048;-56
2023/08/01 12:15:49;;;;;;;61.03;9.68;;;;;;;;;;5006833;28;20627;-55
2023/08/01 12:18:29;;;;;;;257.58;186.68;;;;;;;;;;5006037;28;20304;-55
2023/08/01 12:20:55;;;;;;;127.70;86.15;;;;;;;;;;5009262;28;20462;-52
2023/08/01 12:23:21;;;;;;;168.57;125.13;;;;;;;;;;5008274;28;20495;-53
2023/08/01 12:25:46;;;;;;;196.60;168.77;;;;;;;;;;5005853;28;20045;-53
2023/08/01 12:28:13;;;;;;;233.07;120.97;;;;;;;;;;5007388;28;20025;-55
2023/08/01 12:30:42;;;;;;;246.82;188.73;;;;;;;;;;5006323;28;20033;-53
2023/08/01 12:33:08;;;;;;;311.55;143.18;;;;;;;;;;5008122;28;20476;-54
2023/08/01 12:35:33;;;;;;;250.75;225.50;;;;;;;;;;5008613;28;20083;-55
2023/08/01 12:37:58;;;;;;;217.27;167.33;;;;;;;;;;5009110;28;20025;-55
2023/08/01 12:40:23;;;;;;;163.95;131.27;;;;;;;;;;5008343;28;20272;-55
2023/08/01 12:42:49;;;;;;;223.07;170.87;;;;;;;;;;5008249;28;20129;-56
2023/08/01 12:45:14;;;;;;;212.25;108.70;;;;;;;;;;5008225;28;20264;-55
2023/08/01 12:47:39;;;;;;;224.63;200.90;;;;;;;;;;5008541;28;20567;-55
2023/08/01 12:50:05;;;;;;;155.73;105.90;;;;;;;;;;5006028;28;20026;-54
2023/08/01 12:52:30;;;;;;;168.70;107.18;;;;;;;;;;5007311;28;20084;-54
2023/08/01 12:54:55;;;;;;;328.57;248.87;;;;;;;;;;5007205;28;20010;-55
2023/08/01 12:57:20;;;;;;;260.57;116.73;;;;;;;;;;5008163;28;20125;-55
2023/08/01 12:59:46;;;;;;;323.42;256.98;;;;;;;;;;5007722;28;20022;-55
2023/08/01 13:02:12;;;;;;;223.15;122.25;;;;;;;;;;5003642;28;20030;-54
2023/08/01 13:04:38;;;;;;;143.90;113.88;;;;;;;;;;5008146;28;20030;-53
2023/08/01 13:07:03;;;;;;;181.35;142.85;;;;;;;;;;5004162;28;20125;-54
2023/08/01 13:09:28;;;;;;;241.23;214.20;;;;;;;;;;5008346;28;20010;-54
2023/08/01 13:11:53;;;;;;;184.50;149.37;;;;;;;;;;5010744;28;20519;-55
2023/08/01 13:14:19;;;;;;;275.43;160.47;;;;;;;;;;5003740;28;20450;-56
2023/08/01 13:16:44;;;;;;;221.93;100.90;;;;;;;;;;5006927;28;20416;-53
2023/08/01 13:19:09;;;;;;;193.27;91.43;;;;;;;;;;5004023;28;20533;-56
2023/08/01 13:21:34;;;;;;;208.80;61.87;;;;;;;;;;5005743;28;20819;-53
2023/08/01 13:24:04;;;;;;;118.70;84.57;;;;;;;;;;5004696;28;20291;-55
2023/08/01 13:26:30;;;;;;;154.30;69.00;;;;;;;;;;5006719;28;20697;-54
2023/08/01 13:28:55;;;;;;;164.43;95.80;;;;;;;;;;5007680;28;20537;-56
2023/08/01 13:31:20;;;;;;;222.45;111.88;;;;;;;;;;5005422;28;20529;-54
2023/08/01 13:33:45;;;;;;;130.67;48.83;;;;;;;;;;5005675;28;20054;-54
2023/08/01 13:36:11;;;;;;;144.48;57.63;;;;;;;;;;5007259;28;20845;-53
2023/08/01 13:38:36;;;;;;;199.55;146.60;;;;;;;;;;5007445;28;20442;-53
2023/08/01 13:41:01;;;;;;;265.70;194.20;;;;;;;;;;5006477;28;20029;-55
2023/08/01 13:43:26;;;;;;;50.50;11.18;;;;;;;;;;5004433;28;20264;-55
2023/08/01 13:45:52;;;;;;;196.47;173.77;;;;;;;;;;5005529;28;20038;-54
2023/08/01 13:48:18;;;;;;;187.82;42.83;;;;;;;;;;5005158;28;20026;-54
2023/08/01 13:50:43;;;;;;;125.47;93.80;;;;;;;;;;5006030;28;20036;-54
2023/08/01 13:53:11;;;;;;;148.07;73.22;;;;;;;;;;5004093;28;20045;-56
2023/08/01 13:55:37;;;;;;;271.23;94.35;;;;;;;;;;5004601;28;20428;-56
2023/08/01 13:58:02;;;;;;;205.65;134.80;;;;;;;;;;5009259;28;20488;-56
2023/08/01 14:00:27;;;;;;;101.90;53.07;;;;;;;;;;5005843;28;20091;-54
2023/08/01 14:02:53;;;;;;;174.05;101.57;;;;;;;;;;5005923;28;20260;-56
2023/08/01 14:05:18;;;;;;;167.52;30.50;;;;;;;;;;5004026;28;20022;-56
2023/08/01 14:07:43;;;;;;;220.35;169.30;;;;;;;;;;5004543;28;20572;-56